createdAt,value
2019-01-15T00:00:10.203Z,2.83
2019-01-15T00:02:38.823Z,2.70
2019-01-15T00:05:07.369Z,3.20
2019-01-15T00:07:35.827Z,3.33
2019-01-15T00:10:07.303Z,3.40
2019-01-15T00:12:35.841Z,3.27
2019-01-15T00:15:07.117Z,3.30
2019-01-15T00:17:35.584Z,3.37
2019-01-15T00:20:06.984Z,2.73
2019-01-15T00:22:35.524Z,2.70
2019-01-15T00:25:05.428Z,2.83
2019-01-15T00:27:33.951Z,3.17
2019-01-15T00:30:02.562Z,2.80
2019-01-15T00:32:31.041Z,2.77
2019-01-15T00:34:59.575Z,3.00
2019-01-15T00:37:28.045Z,2.70
2019-01-15T00:39:56.609Z,2.73
2019-01-15T00:42:25.121Z,2.80
2019-01-15T00:44:53.586Z,3.07
2019-01-15T00:47:22.121Z,3.23
2019-01-15T00:49:50.586Z,2.97
2019-01-15T00:52:19.051Z,2.97
2019-01-15T00:54:47.513Z,2.63
2019-01-15T00:57:15.997Z,2.70
2019-01-15T00:59:44.615Z,2.50
2019-01-15T01:02:13.274Z,2.73
2019-01-15T01:04:41.733Z,2.40
2019-01-15T01:07:10.272Z,2.50
2019-01-15T01:09:38.797Z,2.47
2019-01-15T01:12:07.386Z,2.70
2019-01-15T01:14:35.860Z,2.00
2019-01-15T01:17:04.548Z,2.50
2019-01-15T01:19:33.021Z,2.50
2019-01-15T01:22:01.943Z,2.20
2019-01-15T01:24:30.432Z,2.13
2019-01-15T01:26:58.962Z,2.27
2019-01-15T01:29:27.488Z,3.00
2019-01-15T01:31:55.965Z,2.07
2019-01-15T01:34:24.444Z,2.60
2019-01-15T01:36:52.994Z,1.90
2019-01-15T01:39:21.465Z,2.30
2019-01-15T01:41:50.029Z,2.50
2019-01-15T01:44:18.542Z,2.17
2019-01-15T01:46:47.112Z,2.27
2019-01-15T01:49:15.595Z,1.87
2019-01-15T01:51:44.044Z,2.47
2019-01-15T01:54:12.535Z,2.30
2019-01-15T01:56:41.055Z,2.67
2019-01-15T01:59:09.519Z,2.50
2019-01-15T02:01:37.977Z,2.23
2019-01-15T02:04:08.405Z,2.03
2019-01-15T02:06:37.051Z,2.03
2019-01-15T02:09:08.073Z,2.10
2019-01-15T02:11:36.549Z,2.00
2019-01-15T02:14:05.155Z,1.93
2019-01-15T02:16:33.640Z,1.80
2019-01-15T02:19:02.159Z,1.70
2019-01-15T02:21:30.625Z,1.83
2019-01-15T02:23:59.070Z,1.90
2019-01-15T02:26:27.703Z,1.87
2019-01-15T02:28:56.163Z,1.70
2019-01-15T02:31:24.624Z,2.47
2019-01-15T02:33:53.412Z,2.03
2019-01-15T02:36:21.899Z,2.67
2019-01-15T02:38:50.439Z,3.00
2019-01-15T02:41:19.034Z,2.97
2019-01-15T02:43:47.551Z,2.90
2019-01-15T02:46:16.109Z,3.60
2019-01-15T02:48:44.559Z,4.27
2019-01-15T02:51:13.116Z,4.63
2019-01-15T02:53:41.595Z,4.50
2019-01-15T02:56:10.150Z,6.03
2019-01-15T02:58:38.650Z,6.07
2019-01-15T03:01:07.195Z,6.23
2019-01-15T03:03:36.082Z,6.77
2019-01-15T03:06:05.144Z,7.27
2019-01-15T03:08:34.079Z,8.00
2019-01-15T03:11:02.995Z,8.17
2019-01-15T03:13:31.840Z,7.33
2019-01-15T03:16:00.807Z,8.87
2019-01-15T03:18:29.637Z,8.80
2019-01-15T03:20:58.573Z,9.77
2019-01-15T03:23:27.341Z,10.17
2019-01-15T03:25:56.292Z,10.27
2019-01-15T03:28:25.102Z,11.07
2019-01-15T03:30:53.983Z,11.40
2019-01-15T03:33:22.760Z,11.87
2019-01-15T03:35:51.717Z,11.67
2019-01-15T03:38:20.618Z,11.67
2019-01-15T03:40:49.110Z,11.47
2019-01-15T03:43:17.731Z,12.03
2019-01-15T03:45:46.273Z,12.03
2019-01-15T03:48:14.763Z,12.80
2019-01-15T03:50:43.311Z,13.07
2019-01-15T03:53:12.003Z,13.37
2019-01-15T03:55:40.491Z,13.13
2019-01-15T03:58:08.960Z,13.57
2019-01-15T04:00:37.500Z,14.20
2019-01-15T04:03:06.140Z,13.73
2019-01-15T04:05:34.707Z,14.07
2019-01-15T04:08:03.471Z,13.13
2019-01-15T04:10:32.067Z,12.70
2019-01-15T04:13:00.643Z,12.40
2019-01-15T04:15:29.190Z,14.00
2019-01-15T04:17:57.664Z,12.67
2019-01-15T04:20:26.288Z,12.47
2019-01-15T04:22:54.820Z,11.17
2019-01-15T04:25:23.375Z,11.63
2019-01-15T04:27:51.858Z,13.30
2019-01-15T04:30:21.675Z,13.53
2019-01-15T04:32:51.680Z,11.80
2019-01-15T04:35:20.243Z,11.43
2019-01-15T04:37:48.782Z,12.17
2019-01-15T04:40:20.812Z,12.57
2019-01-15T04:42:49.504Z,13.07
2019-01-15T04:45:21.495Z,12.90
2019-01-15T04:47:50.036Z,11.87
2019-01-15T04:50:18.660Z,13.13
2019-01-15T04:52:48.994Z,11.90
2019-01-15T04:55:17.535Z,12.37
2019-01-15T04:57:46.083Z,12.13
2019-01-15T05:00:19.304Z,12.30
2019-01-15T05:02:48.887Z,11.50
2019-01-15T05:05:17.559Z,11.83
2019-01-15T05:07:46.025Z,12.30
2019-01-15T05:10:15.914Z,11.97
2019-01-15T05:12:44.516Z,12.23
2019-01-15T05:15:15.071Z,11.77
2019-01-15T05:17:43.954Z,11.47
2019-01-15T05:20:15.192Z,11.87
2019-01-15T05:22:43.816Z,12.00
2019-01-15T05:25:17.806Z,11.33
2019-01-15T05:27:46.349Z,12.73
2019-01-15T05:30:17.689Z,12.03
2019-01-15T05:32:46.290Z,12.40
2019-01-15T05:35:15.012Z,12.30
2019-01-15T05:37:43.568Z,11.53
2019-01-15T05:40:15.960Z,11.47
2019-01-15T05:42:44.887Z,12.10
2019-01-15T05:45:20.537Z,12.33
2019-01-15T05:47:49.906Z,13.53
2019-01-15T05:50:25.843Z,12.23
2019-01-15T05:52:54.371Z,12.10
2019-01-15T05:55:22.871Z,13.17
2019-01-15T05:57:51.397Z,12.77
2019-01-15T06:00:20.127Z,12.60
2019-01-15T06:02:48.648Z,12.33
2019-01-15T06:05:17.350Z,12.10
2019-01-15T06:07:45.850Z,12.33
2019-01-15T06:10:15.556Z,13.33
2019-01-15T06:12:44.155Z,11.90
2019-01-15T06:15:16.642Z,13.03
2019-01-15T06:17:45.410Z,13.57
2019-01-15T06:20:16.420Z,12.50
2019-01-15T06:22:44.907Z,11.83
2019-01-15T06:25:13.827Z,13.37
2019-01-15T06:27:42.416Z,11.87
2019-01-15T06:30:14.249Z,11.70
2019-01-15T06:32:42.735Z,11.93
2019-01-15T06:35:11.335Z,12.27
2019-01-15T06:37:39.966Z,12.17
2019-01-15T06:40:11.569Z,11.97
2019-01-15T06:42:40.079Z,11.43
2019-01-15T06:45:26.330Z,12.93
2019-01-15T06:47:54.925Z,11.80
2019-01-15T06:50:23.489Z,11.33
2019-01-15T06:52:52.038Z,12.87
2019-01-15T06:55:21.879Z,12.00
2019-01-15T06:57:50.579Z,12.37
2019-01-15T07:00:24.666Z,13.47
2019-01-15T07:02:53.251Z,12.23
2019-01-15T07:05:22.067Z,13.67
2019-01-15T07:07:50.612Z,14.60
2019-01-15T07:10:24.616Z,13.30
2019-01-15T07:12:53.253Z,13.53
2019-01-15T07:15:21.858Z,14.17
2019-01-15T07:17:50.474Z,13.97
2019-01-15T07:20:19.147Z,13.63
2019-01-15T07:22:47.642Z,13.00
2019-01-15T07:25:18.777Z,13.30
2019-01-15T07:27:47.317Z,13.07
2019-01-15T07:30:39.756Z,12.87
2019-01-15T07:33:10.763Z,12.70
2019-01-15T07:35:39.305Z,14.17
2019-01-15T07:38:08.095Z,13.37
2019-01-15T07:40:36.720Z,12.40
2019-01-15T07:43:05.263Z,12.27
2019-01-15T07:45:33.733Z,11.57
2019-01-15T07:48:02.331Z,11.67
2019-01-15T07:50:30.864Z,11.60
2019-01-15T07:52:59.691Z,12.33
2019-01-15T07:55:28.151Z,11.30
2019-01-15T07:57:57.760Z,11.47
2019-01-15T08:00:26.947Z,12.33
2019-01-15T08:02:55.778Z,11.53
2019-01-15T08:05:27.129Z,10.93
2019-01-15T08:07:57.130Z,12.80
2019-01-15T08:10:25.653Z,12.07
2019-01-15T08:12:55.723Z,11.10
2019-01-15T08:15:28.407Z,12.27
2019-01-15T08:17:57.011Z,10.60
2019-01-15T08:20:25.671Z,10.40
2019-01-15T08:22:54.219Z,11.83
2019-01-15T08:25:24.209Z,10.10
2019-01-15T08:27:52.770Z,11.17
2019-01-15T08:30:24.087Z,9.83
2019-01-15T08:32:52.616Z,10.17
2019-01-15T08:35:21.428Z,10.40
2019-01-15T08:37:50.195Z,11.07
2019-01-15T08:40:18.963Z,11.53
2019-01-15T08:42:47.692Z,10.80
2019-01-15T08:45:17.752Z,10.30
2019-01-15T08:47:52.475Z,10.43
2019-01-15T08:50:29.504Z,10.33
2019-01-15T08:52:58.120Z,10.83
2019-01-15T08:55:26.658Z,10.83
2019-01-15T08:57:55.191Z,10.23
2019-01-15T09:00:23.796Z,10.17
2019-01-15T09:02:52.481Z,9.83
2019-01-15T09:05:21.150Z,9.73
2019-01-15T09:07:49.782Z,10.03
2019-01-15T09:10:19.134Z,10.80
2019-01-15T09:12:47.761Z,8.83
2019-01-15T09:15:19.104Z,10.63
2019-01-15T09:17:47.786Z,10.83
2019-01-15T09:20:18.335Z,10.33
2019-01-15T09:22:46.994Z,8.97
2019-01-15T09:25:15.723Z,9.50
2019-01-15T09:27:44.400Z,9.90
2019-01-15T09:30:21.124Z,9.70
2019-01-15T09:32:49.718Z,10.13
2019-01-15T09:35:18.354Z,9.37
2019-01-15T09:37:48.328Z,8.90
2019-01-15T09:40:21.686Z,9.00
2019-01-15T09:42:50.335Z,9.40
2019-01-15T09:45:21.447Z,7.57
2019-01-15T09:47:51.690Z,9.60
2019-01-15T09:50:24.669Z,8.27
2019-01-15T09:52:53.344Z,7.73
2019-01-15T09:55:21.907Z,7.37
2019-01-15T09:57:50.372Z,7.43
2019-01-15T10:00:19.874Z,6.93
2019-01-15T10:02:48.488Z,7.13
2019-01-15T10:05:17.275Z,6.20
2019-01-15T10:07:46.015Z,7.13
2019-01-15T10:10:16.870Z,5.93
2019-01-15T10:12:45.629Z,6.57
2019-01-15T10:15:19.486Z,6.83
2019-01-15T10:17:48.061Z,5.63
2019-01-15T10:20:18.555Z,5.20
2019-01-15T10:22:47.710Z,5.40
2019-01-15T10:25:23.511Z,5.37
2019-01-15T10:27:52.554Z,5.83
2019-01-15T10:30:28.864Z,5.00
2019-01-15T10:33:00.467Z,5.00
2019-01-15T10:35:32.028Z,4.63
2019-01-15T10:38:00.559Z,4.37
2019-01-15T10:40:29.034Z,4.53
2019-01-15T10:42:57.518Z,5.63
2019-01-15T10:45:26.163Z,4.50
2019-01-15T10:47:56.410Z,4.37
2019-01-15T10:50:24.982Z,4.23
2019-01-15T10:52:53.681Z,4.37
2019-01-15T10:55:22.160Z,3.93
2019-01-15T10:57:50.647Z,4.07
2019-01-15T11:00:19.503Z,4.30
2019-01-15T11:02:48.461Z,4.00
2019-01-15T11:05:17.548Z,3.83
2019-01-15T11:07:46.052Z,4.73
2019-01-15T11:10:16.434Z,3.90
2019-01-15T11:12:44.996Z,3.80
2019-01-15T11:15:13.690Z,3.90
2019-01-15T11:17:42.160Z,3.40
2019-01-15T11:20:18.755Z,3.47
2019-01-15T11:22:47.298Z,3.73
2019-01-15T11:25:16.038Z,3.33
2019-01-15T11:27:44.714Z,4.27
2019-01-15T11:30:14.724Z,3.80
2019-01-15T11:32:43.276Z,3.10
2019-01-15T11:35:13.267Z,3.23
2019-01-15T11:37:41.822Z,2.97
2019-01-15T11:40:15.700Z,2.97
2019-01-15T11:42:44.338Z,3.10
2019-01-15T11:45:17.988Z,3.23
2019-01-15T11:47:46.893Z,3.73
2019-01-15T11:50:20.786Z,3.03
2019-01-15T11:52:49.405Z,2.80
2019-01-15T11:55:18.080Z,2.83
2019-01-15T11:57:46.628Z,2.80
2019-01-15T12:00:26.041Z,2.37
2019-01-15T12:02:56.418Z,2.80
2019-01-15T12:05:42.830Z,3.07
2019-01-15T12:08:21.808Z,3.73
2019-01-15T12:11:10.550Z,2.63
2019-01-15T12:13:52.806Z,3.83
2019-01-15T12:16:22.943Z,2.63
2019-01-15T12:18:55.826Z,2.67
2019-01-15T12:21:28.577Z,2.83
2019-01-15T12:23:58.752Z,2.80
2019-01-15T12:26:28.888Z,3.63
2019-01-15T12:29:11.115Z,3.00
2019-01-15T12:31:57.577Z,2.93
2019-01-15T12:34:44.217Z,3.23
2019-01-15T12:37:17.122Z,3.17
2019-01-15T12:39:47.283Z,2.50
2019-01-15T12:42:33.800Z,2.67
2019-01-15T12:45:07.121Z,3.10
2019-01-15T12:47:37.280Z,2.37
2019-01-15T12:50:25.885Z,2.40
2019-01-15T12:52:58.728Z,2.70
2019-01-15T12:55:28.905Z,2.60
2019-01-15T12:57:59.068Z,3.00
2019-01-15T13:00:35.180Z,3.17
2019-01-15T13:03:14.362Z,2.40
2019-01-15T13:06:00.785Z,2.93
2019-01-15T13:08:47.306Z,2.50
2019-01-15T13:11:17.474Z,2.80
2019-01-15T13:13:50.301Z,2.20
2019-01-15T13:16:20.431Z,2.67
2019-01-15T13:18:50.726Z,2.63
2019-01-15T13:21:23.838Z,2.67
2019-01-15T13:23:56.782Z,2.37
2019-01-15T13:26:38.795Z,2.27
2019-01-15T13:29:11.631Z,2.43
2019-01-15T13:31:57.852Z,2.90
2019-01-15T13:34:30.596Z,2.77
2019-01-15T13:37:00.782Z,2.77
2019-01-15T13:39:36.996Z,2.70
2019-01-15T13:42:13.460Z,2.50
2019-01-15T13:44:55.639Z,2.70
2019-01-15T13:47:28.666Z,2.23
2019-01-15T13:50:04.853Z,2.17
2019-01-15T13:52:49.778Z,2.20
2019-01-15T13:55:20.099Z,2.83
2019-01-15T13:57:50.235Z,3.13
2019-01-15T14:00:26.476Z,2.80
2019-01-15T14:03:02.388Z,2.43
2019-01-15T14:05:35.256Z,2.47
2019-01-15T14:08:08.448Z,2.67
2019-01-15T14:10:47.551Z,2.07
2019-01-15T14:13:17.647Z,3.13
2019-01-15T14:16:01.405Z,2.30
2019-01-15T14:18:48.010Z,2.40
2019-01-15T14:21:36.511Z,2.67
2019-01-15T14:24:23.282Z,3.17
2019-01-15T14:26:53.464Z,3.10
2019-01-15T14:29:26.437Z,2.40
2019-01-15T14:32:14.502Z,2.30
2019-01-15T14:35:00.978Z,2.33
2019-01-15T14:37:43.192Z,2.50
2019-01-15T14:40:38.765Z,2.53
2019-01-15T14:43:25.327Z,2.70
2019-01-15T14:46:00.344Z,2.20
2019-01-15T14:48:32.975Z,2.20
2019-01-15T14:51:09.332Z,2.50
2019-01-15T14:53:39.644Z,2.60
2019-01-15T14:56:15.667Z,2.50
2019-01-15T14:59:01.989Z,2.90
2019-01-15T15:01:38.206Z,2.23
2019-01-15T15:04:14.143Z,1.90
2019-01-15T15:06:53.191Z,2.60
2019-01-15T15:09:26.353Z,2.23
2019-01-15T15:11:56.532Z,2.43
2019-01-15T15:14:26.704Z,2.60
2019-01-15T15:17:05.714Z,2.30
2019-01-15T15:19:52.240Z,2.40
2019-01-15T15:22:38.851Z,1.87
2019-01-15T15:25:13.913Z,2.17
2019-01-15T15:27:53.632Z,1.80
2019-01-15T15:30:39.149Z,1.87
2019-01-15T15:33:24.134Z,2.23
2019-01-15T15:35:54.359Z,2.37
2019-01-15T15:38:33.597Z,1.90
2019-01-15T15:41:06.468Z,2.27
2019-01-15T15:43:52.589Z,1.80
2019-01-15T15:46:25.445Z,2.20
2019-01-15T15:49:01.249Z,2.20
2019-01-15T15:51:31.439Z,2.17
2019-01-15T15:54:07.669Z,2.33
2019-01-15T15:56:49.872Z,2.17
2019-01-15T15:59:22.535Z,2.53
2019-01-15T16:02:09.360Z,2.23
2019-01-15T16:04:39.455Z,2.20
2019-01-15T16:07:12.390Z,3.07
2019-01-15T16:09:42.526Z,2.77
2019-01-15T16:12:29.192Z,2.60
2019-01-15T16:15:15.609Z,2.97
2019-01-15T16:18:03.950Z,2.90
2019-01-15T16:20:36.926Z,3.23
2019-01-15T16:23:19.218Z,3.30
2019-01-15T16:25:49.372Z,3.33
2019-01-15T16:28:28.251Z,4.23
2019-01-15T16:31:07.527Z,3.10
2019-01-15T16:33:54.021Z,3.07
2019-01-15T16:36:40.558Z,3.70
2019-01-15T16:39:26.195Z,3.90
2019-01-15T16:41:56.397Z,3.67
2019-01-15T16:44:26.686Z,3.73
2019-01-15T16:47:05.497Z,3.70
2019-01-15T16:49:35.776Z,3.37
2019-01-15T16:52:08.868Z,3.37
2019-01-15T16:54:39.048Z,3.80
2019-01-15T16:57:18.183Z,3.43
2019-01-15T17:00:08.216Z,4.00
2019-01-15T17:02:41.412Z,4.37
2019-01-15T17:05:28.158Z,3.73
2019-01-15T17:08:01.033Z,3.63
2019-01-15T17:10:43.463Z,3.97
2019-01-15T17:13:25.597Z,4.90
2019-01-15T17:16:01.545Z,3.67
2019-01-15T17:18:37.812Z,4.10
2019-01-15T17:21:26.223Z,3.37
2019-01-15T17:24:05.426Z,3.83
2019-01-15T17:26:47.338Z,3.87
2019-01-15T17:29:19.904Z,4.00
2019-01-15T17:31:50.000Z,3.70
2019-01-15T17:34:22.974Z,4.23
2019-01-15T17:36:56.012Z,4.60
2019-01-15T17:39:32.356Z,4.30
2019-01-15T17:42:14.385Z,3.70
2019-01-15T17:44:50.575Z,3.43
2019-01-15T17:47:26.380Z,3.37
2019-01-15T17:50:13.241Z,4.07
2019-01-15T17:53:01.332Z,3.73
2019-01-15T17:55:33.959Z,3.73
2019-01-15T17:58:04.211Z,3.57
2019-01-15T18:00:36.926Z,3.80
2019-01-15T18:03:07.170Z,3.83
2019-01-15T18:05:55.763Z,3.17
2019-01-15T18:08:41.142Z,3.67
2019-01-15T18:11:17.381Z,3.40
2019-01-15T18:13:50.534Z,3.40
2019-01-15T18:16:35.381Z,3.33
2019-01-15T18:19:23.397Z,4.80
2019-01-15T18:21:56.258Z,3.97
2019-01-15T18:24:38.729Z,3.67
2019-01-15T18:27:08.848Z,4.00
2019-01-15T18:29:47.587Z,4.00
2019-01-15T18:32:33.974Z,4.33
2019-01-15T18:35:10.001Z,4.33
2019-01-15T18:37:46.150Z,4.23
2019-01-15T18:40:25.133Z,3.20
2019-01-15T18:42:57.992Z,3.80
2019-01-15T18:45:40.025Z,4.27
2019-01-15T18:48:25.397Z,4.07
2019-01-15T18:50:58.126Z,4.33
2019-01-15T18:53:28.275Z,4.13
2019-01-15T18:56:13.573Z,4.70
2019-01-15T18:58:55.718Z,4.63
2019-01-15T19:01:42.054Z,5.23
2019-01-15T19:04:12.171Z,4.37
2019-01-15T19:06:48.100Z,4.87
2019-01-15T19:09:33.399Z,5.53
2019-01-15T19:12:03.520Z,4.83
2019-01-15T19:14:36.456Z,5.60
2019-01-15T19:17:06.650Z,5.10
2019-01-15T19:19:51.755Z,5.03
2019-01-15T19:22:21.863Z,4.50
2019-01-15T19:25:11.223Z,4.60
2019-01-15T19:27:41.334Z,5.60
2019-01-15T19:30:17.446Z,4.57
2019-01-15T19:32:59.344Z,5.30
2019-01-15T19:35:38.439Z,4.77
2019-01-15T19:38:08.694Z,4.97
2019-01-15T19:40:41.939Z,5.20
2019-01-15T19:43:28.600Z,4.97
2019-01-15T19:46:15.272Z,5.13
2019-01-15T19:49:01.911Z,5.13
2019-01-15T19:51:35.221Z,5.17
2019-01-15T19:54:05.401Z,5.60
2019-01-15T19:56:41.221Z,5.23
2019-01-15T19:59:18.713Z,5.13
2019-01-15T20:01:51.477Z,5.10
2019-01-15T20:07:29.303Z,5.20
2019-01-15T20:10:05.384Z,5.63
2019-01-15T20:12:44.586Z,6.27
2019-01-15T20:15:20.863Z,6.97
2019-01-15T20:17:50.979Z,6.17
2019-01-15T20:20:21.073Z,6.80
2019-01-15T20:23:07.564Z,5.63
2019-01-15T20:25:56.178Z,5.70
2019-01-15T20:28:35.566Z,6.30
2019-01-15T20:31:05.672Z,5.37
2019-01-15T20:33:50.856Z,6.00
2019-01-15T20:36:37.260Z,5.63
2019-01-15T20:39:09.924Z,5.70
2019-01-15T20:41:56.207Z,6.20
2019-01-15T20:44:44.360Z,5.00
2019-01-15T20:47:17.248Z,5.40
2019-01-15T20:49:53.426Z,5.97
2019-01-15T20:52:35.554Z,5.90
2019-01-15T20:55:07.249Z,6.33
2019-01-15T20:57:46.392Z,5.93
2019-01-15T21:00:22.415Z,5.17
2019-01-15T21:03:08.910Z,6.07
2019-01-15T21:05:55.508Z,5.97
2019-01-15T21:08:42.182Z,5.20
2019-01-15T21:11:12.326Z,5.87
2019-01-15T21:13:47.873Z,5.80
2019-01-15T21:16:23.953Z,5.60
2019-01-15T21:19:09.498Z,5.53
2019-01-15T21:21:42.528Z,5.10
2019-01-15T21:24:21.523Z,4.63
2019-01-15T21:26:57.466Z,4.50
2019-01-15T21:29:36.478Z,5.00
2019-01-15T21:32:25.914Z,4.67
2019-01-15T21:34:58.695Z,5.33
2019-01-15T21:37:31.530Z,4.80
2019-01-15T21:40:18.038Z,4.50
2019-01-15T21:42:56.873Z,4.83
2019-01-15T21:45:28.513Z,4.47
2019-01-15T21:48:14.614Z,4.37
2019-01-15T21:51:02.804Z,4.50
2019-01-15T21:53:48.948Z,4.30
2019-01-15T21:56:35.374Z,4.43
2019-01-15T21:59:11.753Z,4.07
2019-01-15T22:02:00.024Z,4.43
2019-01-15T22:04:46.659Z,5.00
2019-01-15T22:07:19.495Z,4.70
2019-01-15T22:09:55.164Z,4.23
2019-01-15T22:12:31.171Z,4.80
2019-01-15T22:15:04.461Z,5.10
2019-01-15T22:17:50.686Z,4.10
2019-01-15T22:20:37.146Z,4.70
2019-01-15T22:23:10.363Z,4.97
2019-01-15T22:25:49.712Z,4.93
2019-01-15T22:28:31.427Z,4.73
2019-01-15T22:31:10.219Z,5.20
2019-01-15T22:33:43.087Z,4.60
2019-01-15T22:36:19.242Z,5.00
2019-01-15T22:39:05.558Z,5.10
2019-01-15T22:41:35.744Z,5.03
2019-01-15T22:44:14.660Z,5.30
2019-01-15T22:46:53.528Z,5.07
2019-01-15T22:49:39.693Z,5.07
2019-01-15T22:52:28.433Z,5.40
2019-01-15T22:55:07.394Z,4.80
2019-01-15T22:57:37.546Z,5.40
2019-01-15T23:00:21.965Z,5.57
2019-01-15T23:02:52.213Z,5.37
2019-01-15T23:05:37.411Z,6.30
2019-01-15T23:08:10.636Z,6.83
2019-01-15T23:10:43.412Z,6.80
2019-01-15T23:13:22.526Z,6.67
2019-01-15T23:15:54.349Z,6.53
2019-01-15T23:18:39.676Z,7.10
2019-01-15T23:21:15.840Z,7.70
2019-01-15T23:23:54.592Z,7.23
2019-01-15T23:26:24.690Z,7.97
2019-01-15T23:29:01.041Z,8.03
2019-01-15T23:31:37.842Z,8.23
2019-01-15T23:34:08.161Z,8.10
2019-01-15T23:36:43.834Z,8.23
2019-01-15T23:39:16.891Z,8.47
2019-01-15T23:41:47.071Z,8.60
2019-01-15T23:44:23.229Z,8.17
2019-01-15T23:46:59.363Z,8.73
2019-01-15T23:49:38.184Z,8.27
2019-01-15T23:52:17.311Z,9.13
2019-01-15T23:54:50.160Z,9.27
2019-01-15T23:57:36.919Z,9.60
